Cancun International Airp, Mexico

6:40 PM EST on February 06, 2016 (GMT -0500)
Cancun International | | Change Station
CLOSE
Current Station
Airport
Location: Cancun,
Elevation: 16 ft
Nearby Weather Stations

Elev 16 ft 21.04 °N, 86.88 °W | Updated 55 minutes ago

Overcast
Overcast
72 °F
Feels Like 72 °F
N
12
Wind Variable Wind from NW

Today
High -- | Low -- °F
--% Chance of Precip.
Yesterday
High -- | Low -- °F
Precip. -- in
Pressure 30.13 in
Visibility 6.0 miles
Clouds Scattered Clouds 1500 ft
Mostly Cloudy 7000 ft
Overcast 30000 ft
Dew Point 64 °F
Humidity 78%
Rainfall 0.00 in
Snow Depth Not available.
7:22 AM 6:40 PM
Waning Crescent, 3% visible
METAR MMUN 062245Z 32010KT 6SM SCT015 BKN070 OVC300 22/18 A3013 RMK 8/777 HZY
Pressure 30.13 in
Visibility 6.0 miles
Clouds Scattered Clouds 1500 ft
Mostly Cloudy 7000 ft
Overcast 30000 ft
Dew Point 64 °F
Humidity 78%
Rainfall 0.00 in
Snow Depth Not available.
7:22 AM 6:40 PM
Waning Crescent, 3% visible
METAR MMUN 062245Z 32010KT 6SM SCT015 BKN070 OVC300 22/18 A3013 RMK 8/777 HZY

10-Day Weather Forecast

No radar image for this location.
×

Almanac

Astronomy

Feb. 06, 2016 Rise Set
Actual Time
Civil Twilight
Nautical Twilight
Astronomical Twilight
Moon
Length of Visible Light
Length of Day
Tomorrow will be .
, % of the Moon is Illuminated

Today's Extremes

Country Highs Country Lows

Community

WunderPhotos

Upload Photos

1,891,098 photos uploaded!

WunderBlog® & News

Nearby

Air Quality

  Air Quality AQ Index Pollutant
Not available.

Snow Depth

Station Depth Elevation

Earthquake Activity

City Distance Mag. Time & Date
Minimum magnitude displayed is 2.5.

Coastal Water Temperatures

Place Temperature

Stations

Nearby Weather Stations

Station Location Temp. Windchill Dew Point Humidity Wind Precip. Elev Updated Type